sensor_id;sensor_type;location;lat;lon;timestamp;temperature;humidity
20831;DHT22;10576;53.556;9.868;2023-12-07T00:01:02;1.60;99.90
20831;DHT22;10576;53.556;9.868;2023-12-07T00:03:28;1.50;99.90
20831;DHT22;10576;53.556;9.868;2023-12-07T00:05:54;1.50;99.90
20831;DHT22;10576;53.556;9.868;2023-12-07T00:08:19;1.50;99.90
20831;DHT22;10576;53.556;9.868;2023-12-07T00:10:45;1.50;99.90
20831;DHT22;10576;53.556;9.868;2023-12-07T00:13:10;1.60;99.90
20831;DHT22;10576;53.556;9.868;2023-12-07T00:15:36;1.60;99.90
20831;DHT22;10576;53.556;9.868;2023-12-07T00:18:02;1.80;99.90
20831;DHT22;10576;53.556;9.868;2023-12-07T00:20:28;1.70;99.90
20831;DHT22;10576;53.556;9.868;2023-12-07T00:22:54;1.70;99.90
20831;DHT22;10576;53.556;9.868;2023-12-07T00:25:21;1.50;99.90
20831;DHT22;10576;53.556;9.868;2023-12-07T00:27:47;1.60;99.90
20831;DHT22;10576;53.556;9.868;2023-12-07T00:30:12;1.50;99.90
20831;DHT22;10576;53.556;9.868;2023-12-07T00:32:38;1.70;99.90
20831;DHT22;10576;53.556;9.868;2023-12-07T00:35:04;1.70;99.90
20831;DHT22;10576;53.556;9.868;2023-12-07T00:37:29;1.70;99.90
20831;DHT22;10576;53.556;9.868;2023-12-07T00:39:56;1.70;99.90
20831;DHT22;10576;53.556;9.868;2023-12-07T00:42:21;1.70;99.90
20831;DHT22;10576;53.556;9.868;2023-12-07T00:44:47;1.70;99.90
20831;DHT22;10576;53.556;9.868;2023-12-07T00:47:12;1.70;99.90
20831;DHT22;10576;53.556;9.868;2023-12-07T00:49:38;0.00;99.90
20831;DHT22;10576;53.556;9.868;2023-12-07T00:52:07;2.30;99.90
20831;DHT22;10576;53.556;9.868;2023-12-07T00:54:32;1.70;99.90
20831;DHT22;10576;53.556;9.868;2023-12-07T00:56:58;1.70;99.90
20831;DHT22;10576;53.556;9.868;2023-12-07T00:59:23;1.70;99.90
20831;DHT22;10576;53.556;9.868;2023-12-07T01:01:50;1.80;99.90
20831;DHT22;10576;53.556;9.868;2023-12-07T01:04:15;1.70;99.90
20831;DHT22;10576;53.556;9.868;2023-12-07T01:06:41;1.70;99.90
20831;DHT22;10576;53.556;9.868;2023-12-07T01:09:08;1.70;99.90
20831;DHT22;10576;53.556;9.868;2023-12-07T01:11:38;1.60;99.90
20831;DHT22;10576;53.556;9.868;2023-12-07T01:14:04;1.70;99.90
20831;DHT22;10576;53.556;9.868;2023-12-07T01:16:30;1.70;99.90
20831;DHT22;10576;53.556;9.868;2023-12-07T01:18:55;1.70;99.90
20831;DHT22;10576;53.556;9.868;2023-12-07T01:21:22;1.60;99.90
20831;DHT22;10576;53.556;9.868;2023-12-07T01:23:48;1.60;99.90
20831;DHT22;10576;53.556;9.868;2023-12-07T01:26:13;1.60;99.90
20831;DHT22;10576;53.556;9.868;2023-12-07T01:28:39;1.60;99.90
20831;DHT22;10576;53.556;9.868;2023-12-07T01:31:04;1.60;99.90
20831;DHT22;10576;53.556;9.868;2023-12-07T01:33:30;1.70;99.90
20831;DHT22;10576;53.556;9.868;2023-12-07T01:35:56;1.60;99.90
20831;DHT22;10576;53.556;9.868;2023-12-07T01:38:22;1.70;99.90
20831;DHT22;10576;53.556;9.868;2023-12-07T01:40:47;1.60;99.90
20831;DHT22;10576;53.556;9.868;2023-12-07T01:43:13;1.60;99.90
20831;DHT22;10576;53.556;9.868;2023-12-07T01:45:39;1.50;99.90
20831;DHT22;10576;53.556;9.868;2023-12-07T01:48:05;1.50;99.90
20831;DHT22;10576;53.556;9.868;2023-12-07T01:50:31;1.60;99.90
20831;DHT22;10576;53.556;9.868;2023-12-07T01:53:00;1.80;99.90
20831;DHT22;10576;53.556;9.868;2023-12-07T01:55:26;1.60;99.90
20831;DHT22;10576;53.556;9.868;2023-12-07T01:57:52;1.60;99.90
20831;DHT22;10576;53.556;9.868;2023-12-07T02:00:18;1.70;99.90
20831;DHT22;10576;53.556;9.868;2023-12-07T02:02:44;1.60;99.90
20831;DHT22;10576;53.556;9.868;2023-12-07T02:05:11;1.60;99.90
20831;DHT22;10576;53.556;9.868;2023-12-07T02:07:37;1.70;99.90
20831;DHT22;10576;53.556;9.868;2023-12-07T02:10:04;1.60;99.90
20831;DHT22;10576;53.556;9.868;2023-12-07T02:12:30;1.70;99.90
20831;DHT22;10576;53.556;9.868;2023-12-07T02:14:56;1.70;99.90
20831;DHT22;10576;53.556;9.868;2023-12-07T02:17:24;1.60;99.90
20831;DHT22;10576;53.556;9.868;2023-12-07T02:22:36;1.70;99.90
20831;DHT22;10576;53.556;9.868;2023-12-07T02:25:11;1.60;99.90
20831;DHT22;10576;53.556;9.868;2023-12-07T02:27:41;1.60;99.90
20831;DHT22;10576;53.556;9.868;2023-12-07T02:30:08;1.60;99.90
20831;DHT22;10576;53.556;9.868;2023-12-07T02:32:34;1.60;99.90
20831;DHT22;10576;53.556;9.868;2023-12-07T02:35:00;1.70;99.90
20831;DHT22;10576;53.556;9.868;2023-12-07T02:37:27;1.80;99.90
20831;DHT22;10576;53.556;9.868;2023-12-07T02:39:53;1.60;99.90
20831;DHT22;10576;53.556;9.868;2023-12-07T02:42:19;1.70;99.90
20831;DHT22;10576;53.556;9.868;2023-12-07T02:44:46;1.60;99.90
20831;DHT22;10576;53.556;9.868;2023-12-07T02:47:11;2.20;99.90
20831;DHT22;10576;53.556;9.868;2023-12-07T02:49:37;1.80;99.90
20831;DHT22;10576;53.556;9.868;2023-12-07T02:52:02;1.50;99.90
20831;DHT22;10576;53.556;9.868;2023-12-07T02:54:28;1.70;99.90
20831;DHT22;10576;53.556;9.868;2023-12-07T02:56:53;1.70;99.90
20831;DHT22;10576;53.556;9.868;2023-12-07T02:59:19;1.70;99.90
20831;DHT22;10576;53.556;9.868;2023-12-07T03:01:44;1.70;99.90
20831;DHT22;10576;53.556;9.868;2023-12-07T03:04:10;1.50;99.90
20831;DHT22;10576;53.556;9.868;2023-12-07T03:06:36;1.60;99.90
20831;DHT22;10576;53.556;9.868;2023-12-07T03:09:01;1.60;99.90
20831;DHT22;10576;53.556;9.868;2023-12-07T03:11:27;1.60;99.90
20831;DHT22;10576;53.556;9.868;2023-12-07T03:13:52;1.70;99.90
20831;DHT22;10576;53.556;9.868;2023-12-07T03:16:18;1.60;99.90
20831;DHT22;10576;53.556;9.868;2023-12-07T03:18:44;1.70;99.90
20831;DHT22;10576;53.556;9.868;2023-12-07T03:21:09;1.60;99.90
20831;DHT22;10576;53.556;9.868;2023-12-07T03:23:35;1.60;99.90
20831;DHT22;10576;53.556;9.868;2023-12-07T03:26:00;1.60;99.90
20831;DHT22;10576;53.556;9.868;2023-12-07T03:28:26;1.60;99.90
20831;DHT22;10576;53.556;9.868;2023-12-07T03:30:52;1.60;99.90
20831;DHT22;10576;53.556;9.868;2023-12-07T03:33:17;1.60;99.90
20831;DHT22;10576;53.556;9.868;2023-12-07T03:35:43;1.70;99.90
20831;DHT22;10576;53.556;9.868;2023-12-07T03:38:08;1.70;99.90
20831;DHT22;10576;53.556;9.868;2023-12-07T03:40:34;1.60;99.90
20831;DHT22;10576;53.556;9.868;2023-12-07T03:42:59;1.60;99.90
20831;DHT22;10576;53.556;9.868;2023-12-07T03:45:25;1.70;99.90
20831;DHT22;10576;53.556;9.868;2023-12-07T03:47:50;1.60;99.90
20831;DHT22;10576;53.556;9.868;2023-12-07T03:50:16;1.70;99.90
20831;DHT22;10576;53.556;9.868;2023-12-07T03:52:41;2.00;99.90
20831;DHT22;10576;53.556;9.868;2023-12-07T03:55:07;1.70;99.90
20831;DHT22;10576;53.556;9.868;2023-12-07T03:57:32;1.70;99.90
20831;DHT22;10576;53.556;9.868;2023-12-07T03:59:58;1.40;99.90
20831;DHT22;10576;53.556;9.868;2023-12-07T04:02:23;1.70;99.90
20831;DHT22;10576;53.556;9.868;2023-12-07T04:04:49;1.70;99.90
20831;DHT22;10576;53.556;9.868;2023-12-07T04:07:15;2.10;99.90
20831;DHT22;10576;53.556;9.868;2023-12-07T04:09:40;1.70;99.90
20831;DHT22;10576;53.556;9.868;2023-12-07T04:12:06;2.50;99.90
20831;DHT22;10576;53.556;9.868;2023-12-07T04:14:31;1.70;99.90
20831;DHT22;10576;53.556;9.868;2023-12-07T04:16:57;1.60;99.90
20831;DHT22;10576;53.556;9.868;2023-12-07T04:19:22;1.80;99.90
20831;DHT22;10576;53.556;9.868;2023-12-07T04:21:48;1.60;99.90
20831;DHT22;10576;53.556;9.868;2023-12-07T04:24:13;1.80;99.90
20831;DHT22;10576;53.556;9.868;2023-12-07T04:26:39;1.80;99.90
20831;DHT22;10576;53.556;9.868;2023-12-07T04:29:04;1.70;99.90
20831;DHT22;10576;53.556;9.868;2023-12-07T04:31:30;1.70;99.90
20831;DHT22;10576;53.556;9.868;2023-12-07T04:33:56;1.80;99.90
20831;DHT22;10576;53.556;9.868;2023-12-07T04:36:21;1.60;99.90
20831;DHT22;10576;53.556;9.868;2023-12-07T04:38:47;1.80;99.90
20831;DHT22;10576;53.556;9.868;2023-12-07T04:41:12;1.80;99.90
20831;DHT22;10576;53.556;9.868;2023-12-07T04:43:38;1.70;99.90
20831;DHT22;10576;53.556;9.868;2023-12-07T04:46:03;1.70;99.90
20831;DHT22;10576;53.556;9.868;2023-12-07T04:48:29;1.70;99.90
20831;DHT22;10576;53.556;9.868;2023-12-07T04:50:54;1.70;99.90
20831;DHT22;10576;53.556;9.868;2023-12-07T04:53:20;1.80;99.90
20831;DHT22;10576;53.556;9.868;2023-12-07T04:55:45;1.70;99.90
20831;DHT22;10576;53.556;9.868;2023-12-07T04:58:15;1.70;99.90
20831;DHT22;10576;53.556;9.868;2023-12-07T05:00:41;1.70;99.90
20831;DHT22;10576;53.556;9.868;2023-12-07T05:03:06;1.70;99.90
20831;DHT22;10576;53.556;9.868;2023-12-07T05:05:32;1.80;99.90
20831;DHT22;10576;53.556;9.868;2023-12-07T05:07:57;1.70;99.90
20831;DHT22;10576;53.556;9.868;2023-12-07T05:10:23;2.40;99.90
20831;DHT22;10576;53.556;9.868;2023-12-07T05:12:48;2.00;99.90
20831;DHT22;10576;53.556;9.868;2023-12-07T05:15:14;1.70;99.90
20831;DHT22;10576;53.556;9.868;2023-12-07T05:17:39;1.80;99.90
20831;DHT22;10576;53.556;9.868;2023-12-07T05:20:05;2.00;99.90
20831;DHT22;10576;53.556;9.868;2023-12-07T05:22:31;1.70;99.90
20831;DHT22;10576;53.556;9.868;2023-12-07T05:24:56;1.70;99.90
20831;DHT22;10576;53.556;9.868;2023-12-07T05:27:22;1.60;99.90
20831;DHT22;10576;53.556;9.868;2023-12-07T05:29:47;1.70;99.90
20831;DHT22;10576;53.556;9.868;2023-12-07T05:32:13;1.70;99.90
20831;DHT22;10576;53.556;9.868;2023-12-07T05:34:38;1.70;99.90
20831;DHT22;10576;53.556;9.868;2023-12-07T05:37:04;1.70;99.90
20831;DHT22;10576;53.556;9.868;2023-12-07T05:39:30;1.70;99.90
20831;DHT22;10576;53.556;9.868;2023-12-07T05:41:55;1.70;99.90
20831;DHT22;10576;53.556;9.868;2023-12-07T05:44:21;1.70;99.90
20831;DHT22;10576;53.556;9.868;2023-12-07T05:46:48;2.20;99.90
20831;DHT22;10576;53.556;9.868;2023-12-07T05:49:13;1.70;99.90
20831;DHT22;10576;53.556;9.868;2023-12-07T05:51:39;1.60;99.90
20831;DHT22;10576;53.556;9.868;2023-12-07T05:54:05;1.70;99.90
20831;DHT22;10576;53.556;9.868;2023-12-07T05:56:31;1.70;99.90
20831;DHT22;10576;53.556;9.868;2023-12-07T05:58:56;1.90;99.90
20831;DHT22;10576;53.556;9.868;2023-12-07T06:01:22;2.00;99.90
20831;DHT22;10576;53.556;9.868;2023-12-07T06:03:49;1.80;99.90
20831;DHT22;10576;53.556;9.868;2023-12-07T06:06:15;2.00;99.90
20831;DHT22;10576;53.556;9.868;2023-12-07T06:08:40;1.80;99.90
20831;DHT22;10576;53.556;9.868;2023-12-07T06:11:07;1.70;99.90
20831;DHT22;10576;53.556;9.868;2023-12-07T06:13:32;1.80;99.90
20831;DHT22;10576;53.556;9.868;2023-12-07T06:15:59;1.80;99.90
20831;DHT22;10576;53.556;9.868;2023-12-07T06:18:24;1.90;99.90
20831;DHT22;10576;53.556;9.868;2023-12-07T06:20:50;2.20;99.90
20831;DHT22;10576;53.556;9.868;2023-12-07T06:23:15;2.10;99.90
20831;DHT22;10576;53.556;9.868;2023-12-07T06:25:41;1.80;99.90
20831;DHT22;10576;53.556;9.868;2023-12-07T06:28:07;1.80;99.90
20831;DHT22;10576;53.556;9.868;2023-12-07T06:30:32;2.00;99.90
20831;DHT22;10576;53.556;9.868;2023-12-07T06:32:58;1.70;99.90
20831;DHT22;10576;53.556;9.868;2023-12-07T06:35:23;1.80;99.90
20831;DHT22;10576;53.556;9.868;2023-12-07T06:37:49;1.80;99.90
20831;DHT22;10576;53.556;9.868;2023-12-07T06:40:15;1.80;99.90
20831;DHT22;10576;53.556;9.868;2023-12-07T06:42:40;1.80;99.90
20831;DHT22;10576;53.556;9.868;2023-12-07T06:45:06;1.80;99.90
20831;DHT22;10576;53.556;9.868;2023-12-07T06:47:36;1.80;99.90
20831;DHT22;10576;53.556;9.868;2023-12-07T06:50:02;1.80;99.90
20831;DHT22;10576;53.556;9.868;2023-12-07T06:52:28;1.90;99.90
20831;DHT22;10576;53.556;9.868;2023-12-07T06:54:53;1.90;99.90
20831;DHT22;10576;53.556;9.868;2023-12-07T06:57:19;1.80;99.90
20831;DHT22;10576;53.556;9.868;2023-12-07T06:59:44;1.80;99.90
20831;DHT22;10576;53.556;9.868;2023-12-07T07:02:10;1.80;99.90
20831;DHT22;10576;53.556;9.868;2023-12-07T07:04:35;1.90;99.90
20831;DHT22;10576;53.556;9.868;2023-12-07T07:07:01;1.80;99.90
20831;DHT22;10576;53.556;9.868;2023-12-07T07:09:27;1.80;99.90
20831;DHT22;10576;53.556;9.868;2023-12-07T07:11:52;1.70;99.90
20831;DHT22;10576;53.556;9.868;2023-12-07T07:14:18;1.90;99.90
20831;DHT22;10576;53.556;9.868;2023-12-07T07:16:44;1.80;99.90
20831;DHT22;10576;53.556;9.868;2023-12-07T07:19:10;1.90;99.90
20831;DHT22;10576;53.556;9.868;2023-12-07T07:21:36;1.80;99.90
20831;DHT22;10576;53.556;9.868;2023-12-07T07:24:01;1.80;99.90
20831;DHT22;10576;53.556;9.868;2023-12-07T07:26:27;2.20;99.90
20831;DHT22;10576;53.556;9.868;2023-12-07T07:28:53;1.80;99.90
20831;DHT22;10576;53.556;9.868;2023-12-07T07:31:18;1.80;99.90
20831;DHT22;10576;53.556;9.868;2023-12-07T07:33:44;1.90;99.90
20831;DHT22;10576;53.556;9.868;2023-12-07T07:36:12;1.90;99.90
20831;DHT22;10576;53.556;9.868;2023-12-07T07:38:38;1.80;99.90
20831;DHT22;10576;53.556;9.868;2023-12-07T07:41:03;2.00;99.90
20831;DHT22;10576;53.556;9.868;2023-12-07T07:43:29;1.90;99.90
20831;DHT22;10576;53.556;9.868;2023-12-07T07:45:55;1.90;99.90
20831;DHT22;10576;53.556;9.868;2023-12-07T07:48:21;1.90;99.90
20831;DHT22;10576;53.556;9.868;2023-12-07T07:50:46;2.10;99.90
20831;DHT22;10576;53.556;9.868;2023-12-07T07:53:12;2.00;99.90
20831;DHT22;10576;53.556;9.868;2023-12-07T07:55:38;2.00;99.90
20831;DHT22;10576;53.556;9.868;2023-12-07T07:58:03;2.00;99.90
20831;DHT22;10576;53.556;9.868;2023-12-07T08:00:29;2.00;99.90
20831;DHT22;10576;53.556;9.868;2023-12-07T08:02:55;2.00;99.90
20831;DHT22;10576;53.556;9.868;2023-12-07T08:05:21;2.00;99.90
20831;DHT22;10576;53.556;9.868;2023-12-07T08:07:46;2.00;99.90
20831;DHT22;10576;53.556;9.868;2023-12-07T08:10:12;2.00;99.90
20831;DHT22;10576;53.556;9.868;2023-12-07T08:12:39;2.10;99.90
20831;DHT22;10576;53.556;9.868;2023-12-07T08:15:04;2.10;99.90
20831;DHT22;10576;53.556;9.868;2023-12-07T08:17:30;2.20;99.90
20831;DHT22;10576;53.556;9.868;2023-12-07T08:19:56;2.10;99.90
20831;DHT22;10576;53.556;9.868;2023-12-07T08:22:24;2.20;99.90
20831;DHT22;10576;53.556;9.868;2023-12-07T08:24:50;2.20;99.90
20831;DHT22;10576;53.556;9.868;2023-12-07T08:27:15;2.20;99.90
20831;DHT22;10576;53.556;9.868;2023-12-07T08:29:41;2.10;99.90
20831;DHT22;10576;53.556;9.868;2023-12-07T08:32:06;2.10;99.90
20831;DHT22;10576;53.556;9.868;2023-12-07T08:34:32;2.20;99.90
20831;DHT22;10576;53.556;9.868;2023-12-07T08:36:57;2.20;99.90
20831;DHT22;10576;53.556;9.868;2023-12-07T08:39:23;2.30;99.90
20831;DHT22;10576;53.556;9.868;2023-12-07T08:41:49;2.60;99.90
20831;DHT22;10576;53.556;9.868;2023-12-07T08:44:15;2.30;99.90
20831;DHT22;10576;53.556;9.868;2023-12-07T08:46:40;2.30;99.90
20831;DHT22;10576;53.556;9.868;2023-12-07T08:49:09;2.30;99.90
20831;DHT22;10576;53.556;9.868;2023-12-07T08:51:35;2.20;99.90
20831;DHT22;10576;53.556;9.868;2023-12-07T08:54:00;2.30;99.90
20831;DHT22;10576;53.556;9.868;2023-12-07T08:56:26;2.30;99.90
20831;DHT22;10576;53.556;9.868;2023-12-07T08:58:52;2.30;99.90
20831;DHT22;10576;53.556;9.868;2023-12-07T09:01:17;2.30;99.90
20831;DHT22;10576;53.556;9.868;2023-12-07T09:03:43;2.30;99.90
20831;DHT22;10576;53.556;9.868;2023-12-07T09:06:08;2.20;99.90
20831;DHT22;10576;53.556;9.868;2023-12-07T09:08:34;2.10;99.90
20831;DHT22;10576;53.556;9.868;2023-12-07T09:11:00;2.20;99.90
20831;DHT22;10576;53.556;9.868;2023-12-07T09:13:25;2.30;99.90
20831;DHT22;10576;53.556;9.868;2023-12-07T09:15:51;2.20;99.90
20831;DHT22;10576;53.556;9.868;2023-12-07T09:18:16;2.30;99.90
20831;DHT22;10576;53.556;9.868;2023-12-07T09:20:42;2.50;99.90
20831;DHT22;10576;53.556;9.868;2023-12-07T09:23:13;2.30;99.90
20831;DHT22;10576;53.556;9.868;2023-12-07T09:25:40;2.20;99.90
20831;DHT22;10576;53.556;9.868;2023-12-07T09:28:06;2.30;99.90
20831;DHT22;10576;53.556;9.868;2023-12-07T09:30:31;2.30;99.90
20831;DHT22;10576;53.556;9.868;2023-12-07T09:32:59;2.30;99.90
20831;DHT22;10576;53.556;9.868;2023-12-07T09:35:24;2.30;99.90
20831;DHT22;10576;53.556;9.868;2023-12-07T09:37:50;2.30;99.90
20831;DHT22;10576;53.556;9.868;2023-12-07T09:40:16;2.40;99.90
20831;DHT22;10576;53.556;9.868;2023-12-07T09:42:45;2.00;99.90
20831;DHT22;10576;53.556;9.868;2023-12-07T09:45:11;2.00;99.90
20831;DHT22;10576;53.556;9.868;2023-12-07T09:47:37;1.90;99.90
20831;DHT22;10576;53.556;9.868;2023-12-07T09:50:07;2.20;99.90
20831;DHT22;10576;53.556;9.868;2023-12-07T09:52:33;2.10;99.90
20831;DHT22;10576;53.556;9.868;2023-12-07T09:54:59;2.00;99.90
20831;DHT22;10576;53.556;9.868;2023-12-07T09:57:26;2.20;99.90
20831;DHT22;10576;53.556;9.868;2023-12-07T09:59:51;2.10;99.90
20831;DHT22;10576;53.556;9.868;2023-12-07T10:02:17;2.20;99.90
20831;DHT22;10576;53.556;9.868;2023-12-07T10:04:42;2.10;99.90
20831;DHT22;10576;53.556;9.868;2023-12-07T10:07:08;2.40;99.90
20831;DHT22;10576;53.556;9.868;2023-12-07T10:09:43;2.10;99.90
20831;DHT22;10576;53.556;9.868;2023-12-07T10:12:09;2.30;99.90
20831;DHT22;10576;53.556;9.868;2023-12-07T10:14:35;2.40;99.90
20831;DHT22;10576;53.556;9.868;2023-12-07T10:17:01;2.40;99.90
20831;DHT22;10576;53.556;9.868;2023-12-07T10:19:27;2.50;99.90
20831;DHT22;10576;53.556;9.868;2023-12-07T10:21:53;2.40;99.90
20831;DHT22;10576;53.556;9.868;2023-12-07T10:24:20;2.40;99.90
20831;DHT22;10576;53.556;9.868;2023-12-07T10:26:48;2.30;99.90
20831;DHT22;10576;53.556;9.868;2023-12-07T10:29:13;2.30;99.90
20831;DHT22;10576;53.556;9.868;2023-12-07T10:31:39;2.30;99.90
20831;DHT22;10576;53.556;9.868;2023-12-07T10:34:05;2.30;99.90
20831;DHT22;10576;53.556;9.868;2023-12-07T10:36:31;2.30;99.90
20831;DHT22;10576;53.556;9.868;2023-12-07T10:38:57;2.40;99.90
20831;DHT22;10576;53.556;9.868;2023-12-07T10:41:23;2.30;99.90
20831;DHT22;10576;53.556;9.868;2023-12-07T10:44:01;2.40;99.90
20831;DHT22;10576;53.556;9.868;2023-12-07T10:46:27;2.30;99.90
20831;DHT22;10576;53.556;9.868;2023-12-07T10:49:00;2.30;99.90
20831;DHT22;10576;53.556;9.868;2023-12-07T10:51:30;2.40;99.90
20831;DHT22;10576;53.556;9.868;2023-12-07T10:53:56;2.40;99.90
20831;DHT22;10576;53.556;9.868;2023-12-07T10:56:35;2.60;99.90
20831;DHT22;10576;53.556;9.868;2023-12-07T10:59:05;2.40;99.90
20831;DHT22;10576;53.556;9.868;2023-12-07T11:01:31;2.40;99.90
20831;DHT22;10576;53.556;9.868;2023-12-07T11:03:57;2.40;99.90
20831;DHT22;10576;53.556;9.868;2023-12-07T11:06:23;2.40;99.90
20831;DHT22;10576;53.556;9.868;2023-12-07T11:08:54;2.60;99.90
20831;DHT22;10576;53.556;9.868;2023-12-07T11:13:59;2.60;99.90
20831;DHT22;10576;53.556;9.868;2023-12-07T11:16:36;2.50;99.90
20831;DHT22;10576;53.556;9.868;2023-12-07T11:19:04;2.50;99.90
20831;DHT22;10576;53.556;9.868;2023-12-07T11:21:32;2.50;99.90
20831;DHT22;10576;53.556;9.868;2023-12-07T11:23:59;2.40;99.90
20831;DHT22;10576;53.556;9.868;2023-12-07T11:26:25;2.30;99.90
20831;DHT22;10576;53.556;9.868;2023-12-07T11:28:51;2.50;99.90
20831;DHT22;10576;53.556;9.868;2023-12-07T11:31:18;2.40;99.90
20831;DHT22;10576;53.556;9.868;2023-12-07T11:33:44;2.50;99.90
20831;DHT22;10576;53.556;9.868;2023-12-07T11:36:11;2.60;99.90
20831;DHT22;10576;53.556;9.868;2023-12-07T11:38:38;2.60;99.90
20831;DHT22;10576;53.556;9.868;2023-12-07T11:41:04;2.80;99.90
20831;DHT22;10576;53.556;9.868;2023-12-07T11:45:58;2.70;99.90
20831;DHT22;10576;53.556;9.868;2023-12-07T11:48:24;2.70;99.90
20831;DHT22;10576;53.556;9.868;2023-12-07T11:50:56;2.60;99.90
20831;DHT22;10576;53.556;9.868;2023-12-07T11:53:31;2.70;99.90
20831;DHT22;10576;53.556;9.868;2023-12-07T11:56:01;2.60;99.90
20831;DHT22;10576;53.556;9.868;2023-12-07T11:58:30;2.70;99.90
20831;DHT22;10576;53.556;9.868;2023-12-07T12:00:56;2.50;99.90
20831;DHT22;10576;53.556;9.868;2023-12-07T12:03:22;2.70;99.90
20831;DHT22;10576;53.556;9.868;2023-12-07T12:05:48;2.70;99.90
20831;DHT22;10576;53.556;9.868;2023-12-07T12:08:15;2.70;99.90
20831;DHT22;10576;53.556;9.868;2023-12-07T12:10:41;2.50;99.90
20831;DHT22;10576;53.556;9.868;2023-12-07T12:13:08;2.80;99.90
20831;DHT22;10576;53.556;9.868;2023-12-07T12:15:34;2.80;99.90
20831;DHT22;10576;53.556;9.868;2023-12-07T12:17:59;2.40;99.90
20831;DHT22;10576;53.556;9.868;2023-12-07T12:20:25;2.80;99.90
20831;DHT22;10576;53.556;9.868;2023-12-07T12:22:51;3.50;99.90
20831;DHT22;10576;53.556;9.868;2023-12-07T12:25:27;2.70;99.90
20831;DHT22;10576;53.556;9.868;2023-12-07T12:27:54;2.70;99.90
20831;DHT22;10576;53.556;9.868;2023-12-07T12:30:20;2.80;99.90
20831;DHT22;10576;53.556;9.868;2023-12-07T12:32:46;2.70;99.90
20831;DHT22;10576;53.556;9.868;2023-12-07T12:35:15;2.90;99.90
20831;DHT22;10576;53.556;9.868;2023-12-07T12:37:44;2.90;99.90
20831;DHT22;10576;53.556;9.868;2023-12-07T12:40:13;3.00;99.90
20831;DHT22;10576;53.556;9.868;2023-12-07T12:42:43;3.00;99.90
20831;DHT22;10576;53.556;9.868;2023-12-07T12:45:09;3.00;99.90
20831;DHT22;10576;53.556;9.868;2023-12-07T12:47:38;3.20;99.90
20831;DHT22;10576;53.556;9.868;2023-12-07T12:50:04;3.10;99.90
20831;DHT22;10576;53.556;9.868;2023-12-07T12:52:30;3.00;99.90
20831;DHT22;10576;53.556;9.868;2023-12-07T12:54:56;3.20;99.90
20831;DHT22;10576;53.556;9.868;2023-12-07T12:57:22;3.30;99.90
20831;DHT22;10576;53.556;9.868;2023-12-07T12:59:48;3.00;99.90
20831;DHT22;10576;53.556;9.868;2023-12-07T13:02:14;3.30;99.90
20831;DHT22;10576;53.556;9.868;2023-12-07T13:04:39;3.10;99.90
20831;DHT22;10576;53.556;9.868;2023-12-07T13:07:05;3.10;99.90
20831;DHT22;10576;53.556;9.868;2023-12-07T13:09:31;3.10;99.90
20831;DHT22;10576;53.556;9.868;2023-12-07T13:11:57;3.10;99.90
20831;DHT22;10576;53.556;9.868;2023-12-07T13:14:23;3.10;99.90
20831;DHT22;10576;53.556;9.868;2023-12-07T13:16:49;3.10;99.90
20831;DHT22;10576;53.556;9.868;2023-12-07T13:19:15;3.10;99.90
20831;DHT22;10576;53.556;9.868;2023-12-07T13:21:40;3.30;99.90
20831;DHT22;10576;53.556;9.868;2023-12-07T13:24:06;3.10;99.90
20831;DHT22;10576;53.556;9.868;2023-12-07T13:26:33;3.10;99.90
20831;DHT22;10576;53.556;9.868;2023-12-07T13:28:59;3.10;99.90
20831;DHT22;10576;53.556;9.868;2023-12-07T13:31:24;3.20;99.90
20831;DHT22;10576;53.556;9.868;2023-12-07T13:33:50;3.00;99.90
20831;DHT22;10576;53.556;9.868;2023-12-07T13:36:16;3.10;99.90
20831;DHT22;10576;53.556;9.868;2023-12-07T13:38:45;3.00;99.90
20831;DHT22;10576;53.556;9.868;2023-12-07T13:41:12;3.30;99.90
20831;DHT22;10576;53.556;9.868;2023-12-07T13:43:38;3.10;99.90
20831;DHT22;10576;53.556;9.868;2023-12-07T13:46:03;3.00;99.90
20831;DHT22;10576;53.556;9.868;2023-12-07T13:48:29;3.10;99.90
20831;DHT22;10576;53.556;9.868;2023-12-07T13:50:55;3.10;99.90
20831;DHT22;10576;53.556;9.868;2023-12-07T13:53:20;3.10;99.90
20831;DHT22;10576;53.556;9.868;2023-12-07T13:55:47;3.10;99.90
20831;DHT22;10576;53.556;9.868;2023-12-07T13:58:12;3.10;99.90
20831;DHT22;10576;53.556;9.868;2023-12-07T14:00:38;3.00;99.90
20831;DHT22;10576;53.556;9.868;2023-12-07T14:03:03;3.00;99.90
20831;DHT22;10576;53.556;9.868;2023-12-07T14:05:29;3.00;99.90
20831;DHT22;10576;53.556;9.868;2023-12-07T14:07:55;2.90;99.90
20831;DHT22;10576;53.556;9.868;2023-12-07T14:10:21;3.00;99.90
20831;DHT22;10576;53.556;9.868;2023-12-07T14:12:47;2.90;99.90
20831;DHT22;10576;53.556;9.868;2023-12-07T14:15:13;3.10;99.90
20831;DHT22;10576;53.556;9.868;2023-12-07T14:17:38;3.10;99.90
20831;DHT22;10576;53.556;9.868;2023-12-07T14:20:04;3.10;99.90
20831;DHT22;10576;53.556;9.868;2023-12-07T14:22:30;3.00;99.90
20831;DHT22;10576;53.556;9.868;2023-12-07T14:24:55;3.10;99.90
20831;DHT22;10576;53.556;9.868;2023-12-07T14:27:22;3.00;99.90
20831;DHT22;10576;53.556;9.868;2023-12-07T14:29:47;3.10;99.90
20831;DHT22;10576;53.556;9.868;2023-12-07T14:32:13;3.00;99.90
20831;DHT22;10576;53.556;9.868;2023-12-07T14:34:38;3.00;99.90
20831;DHT22;10576;53.556;9.868;2023-12-07T14:37:04;3.00;99.90
20831;DHT22;10576;53.556;9.868;2023-12-07T14:39:36;3.00;99.90
20831;DHT22;10576;53.556;9.868;2023-12-07T14:42:02;3.00;99.90
20831;DHT22;10576;53.556;9.868;2023-12-07T14:44:29;2.90;99.90
20831;DHT22;10576;53.556;9.868;2023-12-07T14:46:55;2.90;99.90
20831;DHT22;10576;53.556;9.868;2023-12-07T14:49:20;2.90;99.90
20831;DHT22;10576;53.556;9.868;2023-12-07T14:51:46;3.10;99.90
20831;DHT22;10576;53.556;9.868;2023-12-07T14:54:12;2.90;99.90
20831;DHT22;10576;53.556;9.868;2023-12-07T14:56:38;2.90;99.90
20831;DHT22;10576;53.556;9.868;2023-12-07T14:59:04;2.90;99.90
20831;DHT22;10576;53.556;9.868;2023-12-07T15:01:29;2.80;99.90
20831;DHT22;10576;53.556;9.868;2023-12-07T15:03:56;2.80;99.90
20831;DHT22;10576;53.556;9.868;2023-12-07T15:06:21;2.70;99.90
20831;DHT22;10576;53.556;9.868;2023-12-07T15:08:47;2.90;99.90
20831;DHT22;10576;53.556;9.868;2023-12-07T15:11:12;2.90;99.90
20831;DHT22;10576;53.556;9.868;2023-12-07T15:13:38;2.80;99.90
20831;DHT22;10576;53.556;9.868;2023-12-07T15:16:04;2.70;99.90
20831;DHT22;10576;53.556;9.868;2023-12-07T15:18:30;2.80;99.90
20831;DHT22;10576;53.556;9.868;2023-12-07T15:20:59;2.80;99.90
20831;DHT22;10576;53.556;9.868;2023-12-07T15:23:26;2.80;99.90
20831;DHT22;10576;53.556;9.868;2023-12-07T15:25:52;2.80;99.90
20831;DHT22;10576;53.556;9.868;2023-12-07T15:28:17;2.90;99.90
20831;DHT22;10576;53.556;9.868;2023-12-07T15:30:43;2.90;99.90
20831;DHT22;10576;53.556;9.868;2023-12-07T15:33:09;2.90;99.90
20831;DHT22;10576;53.556;9.868;2023-12-07T15:35:34;2.80;99.90
20831;DHT22;10576;53.556;9.868;2023-12-07T15:38:00;2.70;99.90
20831;DHT22;10576;53.556;9.868;2023-12-07T15:40:25;2.80;99.90
20831;DHT22;10576;53.556;9.868;2023-12-07T15:42:51;2.80;99.90
20831;DHT22;10576;53.556;9.868;2023-12-07T15:45:16;2.70;99.90